sensor_id;sensor_type;location;lat;lon;timestamp;temperature;humidity
12682;DHT22;6405;59.208;18.216;2024-02-04T00:01:40;3.00;99.90
12682;DHT22;6405;59.208;18.216;2024-02-04T00:04:06;3.00;99.90
12682;DHT22;6405;59.208;18.216;2024-02-04T00:06:32;2.90;99.90
12682;DHT22;6405;59.208;18.216;2024-02-04T00:08:57;2.90;99.90
12682;DHT22;6405;59.208;18.216;2024-02-04T00:11:23;2.90;99.90
12682;DHT22;6405;59.208;18.216;2024-02-04T00:13:49;2.80;99.90
12682;DHT22;6405;59.208;18.216;2024-02-04T00:16:15;3.00;99.90
12682;DHT22;6405;59.208;18.216;2024-02-04T00:18:40;2.90;99.90
12682;DHT22;6405;59.208;18.216;2024-02-04T00:21:06;3.00;99.90
12682;DHT22;6405;59.208;18.216;2024-02-04T00:23:32;3.00;99.90
12682;DHT22;6405;59.208;18.216;2024-02-04T00:25:58;2.90;99.90
12682;DHT22;6405;59.208;18.216;2024-02-04T00:28:23;3.00;99.90
12682;DHT22;6405;59.208;18.216;2024-02-04T00:30:49;2.90;99.90
12682;DHT22;6405;59.208;18.216;2024-02-04T00:33:16;2.90;99.90
12682;DHT22;6405;59.208;18.216;2024-02-04T00:35:42;2.80;99.90
12682;DHT22;6405;59.208;18.216;2024-02-04T00:38:08;2.90;99.90
12682;DHT22;6405;59.208;18.216;2024-02-04T00:40:34;2.80;99.90
12682;DHT22;6405;59.208;18.216;2024-02-04T00:43:00;2.80;99.90
12682;DHT22;6405;59.208;18.216;2024-02-04T00:45:26;2.80;99.90
12682;DHT22;6405;59.208;18.216;2024-02-04T00:47:52;2.90;99.90
12682;DHT22;6405;59.208;18.216;2024-02-04T00:50:18;2.90;99.90
12682;DHT22;6405;59.208;18.216;2024-02-04T00:52:43;3.30;99.90
12682;DHT22;6405;59.208;18.216;2024-02-04T00:55:09;3.00;99.90
12682;DHT22;6405;59.208;18.216;2024-02-04T00:57:35;2.90;99.90
12682;DHT22;6405;59.208;18.216;2024-02-04T01:00:01;2.90;99.90
12682;DHT22;6405;59.208;18.216;2024-02-04T01:02:26;3.00;99.90
12682;DHT22;6405;59.208;18.216;2024-02-04T01:04:52;3.00;99.90
12682;DHT22;6405;59.208;18.216;2024-02-04T01:07:18;2.80;99.90
12682;DHT22;6405;59.208;18.216;2024-02-04T01:09:44;3.00;99.90
12682;DHT22;6405;59.208;18.216;2024-02-04T01:12:09;2.80;99.90
12682;DHT22;6405;59.208;18.216;2024-02-04T01:14:35;2.70;99.90
12682;DHT22;6405;59.208;18.216;2024-02-04T01:17:01;2.70;99.90
12682;DHT22;6405;59.208;18.216;2024-02-04T01:19:26;2.70;99.90
12682;DHT22;6405;59.208;18.216;2024-02-04T01:21:52;2.70;99.90
12682;DHT22;6405;59.208;18.216;2024-02-04T01:24:18;2.60;99.90
12682;DHT22;6405;59.208;18.216;2024-02-04T01:26:43;2.70;99.90
12682;DHT22;6405;59.208;18.216;2024-02-04T01:29:09;2.70;99.90
12682;DHT22;6405;59.208;18.216;2024-02-04T01:31:35;2.60;99.90
12682;DHT22;6405;59.208;18.216;2024-02-04T01:34:01;2.70;99.90
12682;DHT22;6405;59.208;18.216;2024-02-04T01:36:26;2.60;99.90
12682;DHT22;6405;59.208;18.216;2024-02-04T01:38:52;2.70;99.90
12682;DHT22;6405;59.208;18.216;2024-02-04T01:41:18;2.70;99.90
12682;DHT22;6405;59.208;18.216;2024-02-04T01:43:44;2.80;99.90
12682;DHT22;6405;59.208;18.216;2024-02-04T01:46:10;2.90;99.90
12682;DHT22;6405;59.208;18.216;2024-02-04T01:48:36;2.80;99.90
12682;DHT22;6405;59.208;18.216;2024-02-04T01:51:02;2.70;99.90
12682;DHT22;6405;59.208;18.216;2024-02-04T01:53:29;2.80;99.90
12682;DHT22;6405;59.208;18.216;2024-02-04T01:55:57;2.70;99.90
12682;DHT22;6405;59.208;18.216;2024-02-04T01:58:24;2.60;99.90
12682;DHT22;6405;59.208;18.216;2024-02-04T02:00:51;2.80;99.90
12682;DHT22;6405;59.208;18.216;2024-02-04T02:03:17;2.70;99.90
12682;DHT22;6405;59.208;18.216;2024-02-04T02:05:42;2.70;99.90
12682;DHT22;6405;59.208;18.216;2024-02-04T02:08:09;2.70;99.90
12682;DHT22;6405;59.208;18.216;2024-02-04T02:10:35;2.80;99.90
12682;DHT22;6405;59.208;18.216;2024-02-04T02:13:16;2.80;99.90
12682;DHT22;6405;59.208;18.216;2024-02-04T02:15:48;2.80;99.90
12682;DHT22;6405;59.208;18.216;2024-02-04T02:23:34;2.60;99.90
12682;DHT22;6405;59.208;18.216;2024-02-04T02:26:02;2.60;99.90
12682;DHT22;6405;59.208;18.216;2024-02-04T02:28:29;2.70;99.90
12682;DHT22;6405;59.208;18.216;2024-02-04T02:30:55;2.60;99.90
12682;DHT22;6405;59.208;18.216;2024-02-04T02:33:21;2.60;99.90
12682;DHT22;6405;59.208;18.216;2024-02-04T02:35:51;2.50;99.90
12682;DHT22;6405;59.208;18.216;2024-02-04T02:38:31;2.60;99.90
12682;DHT22;6405;59.208;18.216;2024-02-04T02:40:59;2.60;99.90
12682;DHT22;6405;59.208;18.216;2024-02-04T02:43:29;2.80;99.90
12682;DHT22;6405;59.208;18.216;2024-02-04T02:45:55;2.80;99.90
12682;DHT22;6405;59.208;18.216;2024-02-04T02:48:21;2.60;99.90
12682;DHT22;6405;59.208;18.216;2024-02-04T02:50:47;2.50;99.90
12682;DHT22;6405;59.208;18.216;2024-02-04T02:53:13;2.60;99.90
12682;DHT22;6405;59.208;18.216;2024-02-04T02:55:39;2.50;99.90
12682;DHT22;6405;59.208;18.216;2024-02-04T02:58:06;2.50;99.90
12682;DHT22;6405;59.208;18.216;2024-02-04T03:00:33;2.50;99.90
12682;DHT22;6405;59.208;18.216;2024-02-04T03:02:58;2.50;99.90
12682;DHT22;6405;59.208;18.216;2024-02-04T03:05:24;2.60;99.90
12682;DHT22;6405;59.208;18.216;2024-02-04T03:07:50;2.50;99.90
12682;DHT22;6405;59.208;18.216;2024-02-04T03:10:16;2.50;99.90
12682;DHT22;6405;59.208;18.216;2024-02-04T03:12:42;2.50;99.90
12682;DHT22;6405;59.208;18.216;2024-02-04T03:15:08;2.40;99.90
12682;DHT22;6405;59.208;18.216;2024-02-04T03:17:33;2.40;99.90
12682;DHT22;6405;59.208;18.216;2024-02-04T03:19:59;2.40;99.90
12682;DHT22;6405;59.208;18.216;2024-02-04T03:22:25;2.30;99.90
12682;DHT22;6405;59.208;18.216;2024-02-04T03:24:51;2.20;99.90
12682;DHT22;6405;59.208;18.216;2024-02-04T03:27:18;2.20;99.90
12682;DHT22;6405;59.208;18.216;2024-02-04T03:29:44;2.20;99.90
12682;DHT22;6405;59.208;18.216;2024-02-04T03:32:11;2.30;99.90
12682;DHT22;6405;59.208;18.216;2024-02-04T03:34:36;2.20;99.90
12682;DHT22;6405;59.208;18.216;2024-02-04T03:37:02;2.20;99.90
12682;DHT22;6405;59.208;18.216;2024-02-04T03:39:28;2.20;99.90
12682;DHT22;6405;59.208;18.216;2024-02-04T03:41:54;2.10;99.90
12682;DHT22;6405;59.208;18.216;2024-02-04T03:44:19;2.00;99.90
12682;DHT22;6405;59.208;18.216;2024-02-04T03:46:49;2.00;99.90
12682;DHT22;6405;59.208;18.216;2024-02-04T03:49:16;2.10;99.90
12682;DHT22;6405;59.208;18.216;2024-02-04T03:51:42;2.10;99.90
12682;DHT22;6405;59.208;18.216;2024-02-04T03:54:07;2.00;99.90
12682;DHT22;6405;59.208;18.216;2024-02-04T03:56:33;2.10;99.90
12682;DHT22;6405;59.208;18.216;2024-02-04T03:58:59;2.00;99.90
12682;DHT22;6405;59.208;18.216;2024-02-04T04:01:25;2.10;99.90
12682;DHT22;6405;59.208;18.216;2024-02-04T04:03:50;2.00;99.90
12682;DHT22;6405;59.208;18.216;2024-02-04T04:06:16;2.00;99.90
12682;DHT22;6405;59.208;18.216;2024-02-04T04:08:42;2.10;99.90
12682;DHT22;6405;59.208;18.216;2024-02-04T04:11:09;2.00;99.90
12682;DHT22;6405;59.208;18.216;2024-02-04T04:13:35;1.90;99.90
12682;DHT22;6405;59.208;18.216;2024-02-04T04:16:02;1.90;99.90
12682;DHT22;6405;59.208;18.216;2024-02-04T04:18:27;1.90;99.90
12682;DHT22;6405;59.208;18.216;2024-02-04T04:20:53;1.90;99.90
12682;DHT22;6405;59.208;18.216;2024-02-04T04:23:19;1.90;99.90
12682;DHT22;6405;59.208;18.216;2024-02-04T04:25:44;1.80;99.90
12682;DHT22;6405;59.208;18.216;2024-02-04T04:28:10;1.90;99.90
12682;DHT22;6405;59.208;18.216;2024-02-04T04:30:36;2.00;99.90
12682;DHT22;6405;59.208;18.216;2024-02-04T04:33:01;1.80;99.90
12682;DHT22;6405;59.208;18.216;2024-02-04T04:35:27;1.80;99.90
12682;DHT22;6405;59.208;18.216;2024-02-04T04:37:53;1.80;99.90
12682;DHT22;6405;59.208;18.216;2024-02-04T04:40:19;1.80;99.90
12682;DHT22;6405;59.208;18.216;2024-02-04T04:42:44;1.70;99.90
12682;DHT22;6405;59.208;18.216;2024-02-04T04:45:10;1.70;99.90
12682;DHT22;6405;59.208;18.216;2024-02-04T04:47:37;1.70;99.90
12682;DHT22;6405;59.208;18.216;2024-02-04T04:50:05;1.90;99.90
12682;DHT22;6405;59.208;18.216;2024-02-04T04:52:31;1.80;99.90
12682;DHT22;6405;59.208;18.216;2024-02-04T04:54:57;1.70;99.90
12682;DHT22;6405;59.208;18.216;2024-02-04T04:57:23;1.80;99.90
12682;DHT22;6405;59.208;18.216;2024-02-04T04:59:48;1.80;99.90
12682;DHT22;6405;59.208;18.216;2024-02-04T05:02:14;1.70;99.90
12682;DHT22;6405;59.208;18.216;2024-02-04T05:04:43;1.80;99.90
12682;DHT22;6405;59.208;18.216;2024-02-04T05:07:10;1.70;99.90
12682;DHT22;6405;59.208;18.216;2024-02-04T05:09:35;1.70;99.90
12682;DHT22;6405;59.208;18.216;2024-02-04T05:12:02;1.70;99.90
12682;DHT22;6405;59.208;18.216;2024-02-04T05:14:28;1.60;99.90
12682;DHT22;6405;59.208;18.216;2024-02-04T05:16:54;1.60;99.90
12682;DHT22;6405;59.208;18.216;2024-02-04T05:19:19;1.70;99.90
12682;DHT22;6405;59.208;18.216;2024-02-04T05:21:45;1.60;99.90
12682;DHT22;6405;59.208;18.216;2024-02-04T05:24:11;1.60;99.90
12682;DHT22;6405;59.208;18.216;2024-02-04T05:26:36;1.60;99.90
12682;DHT22;6405;59.208;18.216;2024-02-04T05:29:02;1.50;99.90
12682;DHT22;6405;59.208;18.216;2024-02-04T05:31:28;1.50;99.90
12682;DHT22;6405;59.208;18.216;2024-02-04T05:33:53;1.60;99.90
12682;DHT22;6405;59.208;18.216;2024-02-04T05:36:19;1.50;99.90
12682;DHT22;6405;59.208;18.216;2024-02-04T05:38:45;1.60;99.90
12682;DHT22;6405;59.208;18.216;2024-02-04T05:41:11;1.50;99.90
12682;DHT22;6405;59.208;18.216;2024-02-04T05:43:37;1.50;99.90
12682;DHT22;6405;59.208;18.216;2024-02-04T05:46:04;1.50;99.90
12682;DHT22;6405;59.208;18.216;2024-02-04T05:48:29;1.40;99.90
12682;DHT22;6405;59.208;18.216;2024-02-04T05:50:55;1.40;99.90
12682;DHT22;6405;59.208;18.216;2024-02-04T05:53:21;1.40;99.90
12682;DHT22;6405;59.208;18.216;2024-02-04T05:55:47;1.40;99.90
12682;DHT22;6405;59.208;18.216;2024-02-04T05:58:12;1.30;99.90
12682;DHT22;6405;59.208;18.216;2024-02-04T06:00:40;1.40;99.90
12682;DHT22;6405;59.208;18.216;2024-02-04T06:03:06;1.30;99.90
12682;DHT22;6405;59.208;18.216;2024-02-04T06:05:32;1.40;99.90
12682;DHT22;6405;59.208;18.216;2024-02-04T06:07:58;1.30;99.90
12682;DHT22;6405;59.208;18.216;2024-02-04T06:10:23;1.40;99.90
12682;DHT22;6405;59.208;18.216;2024-02-04T06:12:49;1.30;99.90
12682;DHT22;6405;59.208;18.216;2024-02-04T06:15:15;1.30;99.90
12682;DHT22;6405;59.208;18.216;2024-02-04T06:17:42;1.30;99.90
12682;DHT22;6405;59.208;18.216;2024-02-04T06:20:08;1.40;99.90
12682;DHT22;6405;59.208;18.216;2024-02-04T06:22:36;1.30;99.90
12682;DHT22;6405;59.208;18.216;2024-02-04T06:25:05;1.40;99.90
12682;DHT22;6405;59.208;18.216;2024-02-04T06:27:31;1.20;99.90
12682;DHT22;6405;59.208;18.216;2024-02-04T06:29:57;1.20;99.90
12682;DHT22;6405;59.208;18.216;2024-02-04T06:32:23;1.20;99.90
12682;DHT22;6405;59.208;18.216;2024-02-04T06:34:50;1.30;99.90
12682;DHT22;6405;59.208;18.216;2024-02-04T06:37:16;1.20;99.90
12682;DHT22;6405;59.208;18.216;2024-02-04T06:39:42;1.20;99.90
12682;DHT22;6405;59.208;18.216;2024-02-04T06:42:08;1.20;99.90
12682;DHT22;6405;59.208;18.216;2024-02-04T06:44:34;1.10;99.90
12682;DHT22;6405;59.208;18.216;2024-02-04T06:47:00;1.30;99.90
12682;DHT22;6405;59.208;18.216;2024-02-04T06:49:26;1.10;99.90
12682;DHT22;6405;59.208;18.216;2024-02-04T06:51:52;1.20;99.90
12682;DHT22;6405;59.208;18.216;2024-02-04T06:54:22;1.40;99.90
12682;DHT22;6405;59.208;18.216;2024-02-04T06:56:48;1.10;99.90
12682;DHT22;6405;59.208;18.216;2024-02-04T06:59:14;1.20;99.90
12682;DHT22;6405;59.208;18.216;2024-02-04T07:01:39;1.10;99.90
12682;DHT22;6405;59.208;18.216;2024-02-04T07:04:05;1.10;99.90
12682;DHT22;6405;59.208;18.216;2024-02-04T07:06:31;1.30;99.90
12682;DHT22;6405;59.208;18.216;2024-02-04T07:08:56;1.20;99.90
12682;DHT22;6405;59.208;18.216;2024-02-04T07:11:22;1.40;99.90
12682;DHT22;6405;59.208;18.216;2024-02-04T07:13:49;1.20;99.90
12682;DHT22;6405;59.208;18.216;2024-02-04T07:16:15;1.20;99.90
12682;DHT22;6405;59.208;18.216;2024-02-04T07:18:40;1.20;99.90
12682;DHT22;6405;59.208;18.216;2024-02-04T07:21:06;1.20;99.90
12682;DHT22;6405;59.208;18.216;2024-02-04T07:23:32;1.30;99.90
12682;DHT22;6405;59.208;18.216;2024-02-04T07:25:57;1.20;99.90
12682;DHT22;6405;59.208;18.216;2024-02-04T07:28:23;1.20;99.90
12682;DHT22;6405;59.208;18.216;2024-02-04T07:30:49;1.40;99.90
12682;DHT22;6405;59.208;18.216;2024-02-04T07:33:14;1.40;99.90
12682;DHT22;6405;59.208;18.216;2024-02-04T07:35:40;1.40;99.90
12682;DHT22;6405;59.208;18.216;2024-02-04T07:38:06;1.50;99.90
12682;DHT22;6405;59.208;18.216;2024-02-04T07:40:32;1.50;99.90
12682;DHT22;6405;59.208;18.216;2024-02-04T07:42:57;1.50;99.90
12682;DHT22;6405;59.208;18.216;2024-02-04T07:45:23;1.50;99.90
12682;DHT22;6405;59.208;18.216;2024-02-04T07:47:49;1.60;99.90
12682;DHT22;6405;59.208;18.216;2024-02-04T07:50:14;1.60;99.90
12682;DHT22;6405;59.208;18.216;2024-02-04T07:52:40;1.60;99.90
12682;DHT22;6405;59.208;18.216;2024-02-04T07:55:06;1.80;99.90
12682;DHT22;6405;59.208;18.216;2024-02-04T07:57:32;1.70;99.90
12682;DHT22;6405;59.208;18.216;2024-02-04T07:59:57;1.80;99.90
12682;DHT22;6405;59.208;18.216;2024-02-04T08:02:23;1.70;99.90
12682;DHT22;6405;59.208;18.216;2024-02-04T08:04:49;1.80;99.90
12682;DHT22;6405;59.208;18.216;2024-02-04T08:07:14;1.80;99.90
12682;DHT22;6405;59.208;18.216;2024-02-04T08:09:42;2.00;99.90
12682;DHT22;6405;59.208;18.216;2024-02-04T08:12:08;1.90;99.90
12682;DHT22;6405;59.208;18.216;2024-02-04T08:14:35;1.90;99.90
12682;DHT22;6405;59.208;18.216;2024-02-04T08:17:00;1.90;99.90
12682;DHT22;6405;59.208;18.216;2024-02-04T08:19:26;1.80;99.90
12682;DHT22;6405;59.208;18.216;2024-02-04T08:21:52;1.80;99.90
12682;DHT22;6405;59.208;18.216;2024-02-04T08:24:17;1.80;99.90
12682;DHT22;6405;59.208;18.216;2024-02-04T08:26:43;1.80;99.90
12682;DHT22;6405;59.208;18.216;2024-02-04T08:29:09;1.80;99.90
12682;DHT22;6405;59.208;18.216;2024-02-04T08:31:34;2.00;99.90
12682;DHT22;6405;59.208;18.216;2024-02-04T08:34:00;1.80;99.90
12682;DHT22;6405;59.208;18.216;2024-02-04T08:36:26;1.80;99.90
12682;DHT22;6405;59.208;18.216;2024-02-04T08:38:51;1.90;99.90
12682;DHT22;6405;59.208;18.216;2024-02-04T08:41:17;1.90;99.90
12682;DHT22;6405;59.208;18.216;2024-02-04T08:43:43;2.00;99.90
12682;DHT22;6405;59.208;18.216;2024-02-04T08:46:09;1.90;99.90
12682;DHT22;6405;59.208;18.216;2024-02-04T08:48:34;2.00;99.90
12682;DHT22;6405;59.208;18.216;2024-02-04T08:51:00;2.00;99.90
12682;DHT22;6405;59.208;18.216;2024-02-04T08:53:26;2.00;99.90
12682;DHT22;6405;59.208;18.216;2024-02-04T08:55:51;2.00;99.90
12682;DHT22;6405;59.208;18.216;2024-02-04T08:58:17;2.10;99.90
12682;DHT22;6405;59.208;18.216;2024-02-04T09:00:43;2.10;99.90
12682;DHT22;6405;59.208;18.216;2024-02-04T09:03:09;2.10;99.90
12682;DHT22;6405;59.208;18.216;2024-02-04T09:05:34;2.10;99.90
12682;DHT22;6405;59.208;18.216;2024-02-04T09:08:00;2.10;99.90
12682;DHT22;6405;59.208;18.216;2024-02-04T09:10:27;2.20;99.90
12682;DHT22;6405;59.208;18.216;2024-02-04T09:12:52;2.20;99.90
12682;DHT22;6405;59.208;18.216;2024-02-04T09:15:18;2.20;99.90
12682;DHT22;6405;59.208;18.216;2024-02-04T09:17:43;2.20;99.90
12682;DHT22;6405;59.208;18.216;2024-02-04T09:20:10;2.30;99.90
12682;DHT22;6405;59.208;18.216;2024-02-04T09:22:36;2.30;99.90
12682;DHT22;6405;59.208;18.216;2024-02-04T09:25:01;2.30;99.90
12682;DHT22;6405;59.208;18.216;2024-02-04T09:27:27;2.40;99.90
12682;DHT22;6405;59.208;18.216;2024-02-04T09:29:53;2.40;99.90
12682;DHT22;6405;59.208;18.216;2024-02-04T09:32:20;2.40;99.90
12682;DHT22;6405;59.208;18.216;2024-02-04T09:34:46;2.40;99.90
12682;DHT22;6405;59.208;18.216;2024-02-04T09:37:11;2.60;99.90
12682;DHT22;6405;59.208;18.216;2024-02-04T09:39:37;2.50;99.90
12682;DHT22;6405;59.208;18.216;2024-02-04T09:42:03;2.50;99.90
12682;DHT22;6405;59.208;18.216;2024-02-04T09:44:29;2.50;99.90
12682;DHT22;6405;59.208;18.216;2024-02-04T09:46:57;2.60;99.90
12682;DHT22;6405;59.208;18.216;2024-02-04T09:49:26;2.70;99.90
12682;DHT22;6405;59.208;18.216;2024-02-04T09:51:52;2.90;99.90
12682;DHT22;6405;59.208;18.216;2024-02-04T09:54:19;2.70;99.90
12682;DHT22;6405;59.208;18.216;2024-02-04T09:56:47;2.70;99.90
12682;DHT22;6405;59.208;18.216;2024-02-04T09:59:13;2.80;99.90
12682;DHT22;6405;59.208;18.216;2024-02-04T10:01:39;2.60;99.90
12682;DHT22;6405;59.208;18.216;2024-02-04T10:04:05;2.60;99.90
12682;DHT22;6405;59.208;18.216;2024-02-04T10:06:31;2.60;99.90
12682;DHT22;6405;59.208;18.216;2024-02-04T10:08:56;2.70;99.90
12682;DHT22;6405;59.208;18.216;2024-02-04T10:11:22;2.70;99.90
12682;DHT22;6405;59.208;18.216;2024-02-04T10:13:49;2.80;99.90
12682;DHT22;6405;59.208;18.216;2024-02-04T10:16:18;2.70;99.90
12682;DHT22;6405;59.208;18.216;2024-02-04T10:18:44;2.70;99.90
12682;DHT22;6405;59.208;18.216;2024-02-04T10:21:18;2.80;99.90
12682;DHT22;6405;59.208;18.216;2024-02-04T10:23:48;2.70;99.90
12682;DHT22;6405;59.208;18.216;2024-02-04T10:26:13;2.70;99.90
12682;DHT22;6405;59.208;18.216;2024-02-04T10:28:39;2.80;99.90
12682;DHT22;6405;59.208;18.216;2024-02-04T10:31:08;2.80;99.90
12682;DHT22;6405;59.208;18.216;2024-02-04T10:33:35;2.90;99.90
12682;DHT22;6405;59.208;18.216;2024-02-04T10:36:01;3.10;99.90
12682;DHT22;6405;59.208;18.216;2024-02-04T10:38:27;3.10;99.90
12682;DHT22;6405;59.208;18.216;2024-02-04T10:40:54;3.00;99.90
12682;DHT22;6405;59.208;18.216;2024-02-04T10:43:20;2.90;99.90
12682;DHT22;6405;59.208;18.216;2024-02-04T10:45:47;2.90;99.90
12682;DHT22;6405;59.208;18.216;2024-02-04T10:48:16;2.90;99.90
12682;DHT22;6405;59.208;18.216;2024-02-04T10:50:46;2.90;99.90
12682;DHT22;6405;59.208;18.216;2024-02-04T10:53:14;2.90;99.90
12682;DHT22;6405;59.208;18.216;2024-02-04T10:55:46;2.90;99.90
12682;DHT22;6405;59.208;18.216;2024-02-04T10:58:13;2.90;99.90
12682;DHT22;6405;59.208;18.216;2024-02-04T11:00:41;2.90;99.90
12682;DHT22;6405;59.208;18.216;2024-02-04T11:03:06;2.90;99.90
12682;DHT22;6405;59.208;18.216;2024-02-04T11:05:34;2.90;99.90
12682;DHT22;6405;59.208;18.216;2024-02-04T11:08:02;2.90;99.90
12682;DHT22;6405;59.208;18.216;2024-02-04T11:10:30;2.80;99.90
12682;DHT22;6405;59.208;18.216;2024-02-04T11:12:58;2.90;99.90
12682;DHT22;6405;59.208;18.216;2024-02-04T11:15:29;3.00;99.90
12682;DHT22;6405;59.208;18.216;2024-02-04T11:18:13;3.00;99.90
12682;DHT22;6405;59.208;18.216;2024-02-04T11:26:19;2.60;99.90
12682;DHT22;6405;59.208;18.216;2024-02-04T11:28:45;2.50;99.90
12682;DHT22;6405;59.208;18.216;2024-02-04T11:31:17;2.50;99.90
12682;DHT22;6405;59.208;18.216;2024-02-04T11:33:42;2.40;99.90
12682;DHT22;6405;59.208;18.216;2024-02-04T11:36:13;2.30;99.90
12682;DHT22;6405;59.208;18.216;2024-02-04T11:38:39;2.30;99.90
12682;DHT22;6405;59.208;18.216;2024-02-04T11:41:06;2.40;99.90
12682;DHT22;6405;59.208;18.216;2024-02-04T11:43:36;2.50;99.90
12682;DHT22;6405;59.208;18.216;2024-02-04T11:46:06;2.60;99.90
12682;DHT22;6405;59.208;18.216;2024-02-04T11:48:35;2.70;99.90
12682;DHT22;6405;59.208;18.216;2024-02-04T11:51:03;2.80;99.90
12682;DHT22;6405;59.208;18.216;2024-02-04T11:53:30;2.90;99.90
12682;DHT22;6405;59.208;18.216;2024-02-04T11:55:59;3.10;99.90
12682;DHT22;6405;59.208;18.216;2024-02-04T11:58:29;3.20;99.90
12682;DHT22;6405;59.208;18.216;2024-02-04T12:00:56;3.50;99.90
12682;DHT22;6405;59.208;18.216;2024-02-04T12:03:32;3.30;99.90
12682;DHT22;6405;59.208;18.216;2024-02-04T12:05:59;3.40;99.90
12682;DHT22;6405;59.208;18.216;2024-02-04T12:08:26;3.50;99.90
12682;DHT22;6405;59.208;18.216;2024-02-04T12:10:52;3.60;99.90
12682;DHT22;6405;59.208;18.216;2024-02-04T12:13:19;3.90;99.90
12682;DHT22;6405;59.208;18.216;2024-02-04T12:15:45;3.70;99.90
12682;DHT22;6405;59.208;18.216;2024-02-04T12:18:12;3.90;99.90
12682;DHT22;6405;59.208;18.216;2024-02-04T12:20:39;4.00;99.90
12682;DHT22;6405;59.208;18.216;2024-02-04T12:23:06;3.80;99.90
12682;DHT22;6405;59.208;18.216;2024-02-04T12:25:32;3.90;99.90
12682;DHT22;6405;59.208;18.216;2024-02-04T12:27:59;3.80;99.90
12682;DHT22;6405;59.208;18.216;2024-02-04T12:30:26;3.70;99.90
12682;DHT22;6405;59.208;18.216;2024-02-04T12:33:05;3.70;99.90
12682;DHT22;6405;59.208;18.216;2024-02-04T12:35:31;3.90;99.90
12682;DHT22;6405;59.208;18.216;2024-02-04T12:37:59;3.80;99.90
12682;DHT22;6405;59.208;18.216;2024-02-04T12:40:26;3.90;99.90
12682;DHT22;6405;59.208;18.216;2024-02-04T12:42:57;4.10;99.90
12682;DHT22;6405;59.208;18.216;2024-02-04T12:45:24;4.30;99.90
12682;DHT22;6405;59.208;18.216;2024-02-04T12:47:55;4.50;99.90
12682;DHT22;6405;59.208;18.216;2024-02-04T12:50:21;4.60;99.90
12682;DHT22;6405;59.208;18.216;2024-02-04T12:52:48;4.70;99.90
12682;DHT22;6405;59.208;18.216;2024-02-04T12:55:23;4.70;99.90
12682;DHT22;6405;59.208;18.216;2024-02-04T12:57:50;4.70;99.90
12682;DHT22;6405;59.208;18.216;2024-02-04T13:00:18;4.60;99.90
12682;DHT22;6405;59.208;18.216;2024-02-04T13:02:44;4.70;99.90
12682;DHT22;6405;59.208;18.216;2024-02-04T13:05:21;4.60;99.90
12682;DHT22;6405;59.208;18.216;2024-02-04T13:07:51;4.60;99.90
12682;DHT22;6405;59.208;18.216;2024-02-04T13:10:18;4.60;99.90
12682;DHT22;6405;59.208;18.216;2024-02-04T13:12:44;4.60;99.90
12682;DHT22;6405;59.208;18.216;2024-02-04T13:15:10;4.50;99.90
12682;DHT22;6405;59.208;18.216;2024-02-04T13:17:35;4.40;99.90
12682;DHT22;6405;59.208;18.216;2024-02-04T13:20:01;4.30;99.90
12682;DHT22;6405;59.208;18.216;2024-02-04T13:22:27;4.20;99.90
12682;DHT22;6405;59.208;18.216;2024-02-04T13:24:53;4.20;99.90
12682;DHT22;6405;59.208;18.216;2024-02-04T13:27:19;4.10;99.90
12682;DHT22;6405;59.208;18.216;2024-02-04T13:29:45;4.00;99.90
12682;DHT22;6405;59.208;18.216;2024-02-04T13:32:12;4.10;99.90
12682;DHT22;6405;59.208;18.216;2024-02-04T13:34:38;4.00;99.90
12682;DHT22;6405;59.208;18.216;2024-02-04T13:37:04;3.90;99.90
12682;DHT22;6405;59.208;18.216;2024-02-04T13:39:29;3.90;99.90
12682;DHT22;6405;59.208;18.216;2024-02-04T13:41:55;3.90;99.90
12682;DHT22;6405;59.208;18.216;2024-02-04T13:44:21;3.90;99.90
12682;DHT22;6405;59.208;18.216;2024-02-04T13:46:46;3.80;99.90
12682;DHT22;6405;59.208;18.216;2024-02-04T13:49:12;4.00;99.90
12682;DHT22;6405;59.208;18.216;2024-02-04T13:51:38;3.70;99.90
12682;DHT22;6405;59.208;18.216;2024-02-04T13:54:03;3.70;99.90
12682;DHT22;6405;59.208;18.216;2024-02-04T13:56:29;3.60;99.90
12682;DHT22;6405;59.208;18.216;2024-02-04T13:58:55;3.60;99.90
12682;DHT22;6405;59.208;18.216;2024-02-04T14:01:21;3.50;99.90
12682;DHT22;6405;59.208;18.216;2024-02-04T14:03:48;3.40;99.90
12682;DHT22;6405;59.208;18.216;2024-02-04T14:06:15;3.40;99.90
12682;DHT22;6405;59.208;18.216;2024-02-04T14:08:40;3.40;99.90
12682;DHT22;6405;59.208;18.216;2024-02-04T14:11:06;3.50;99.90
12682;DHT22;6405;59.208;18.216;2024-02-04T14:13:32;3.40;99.90
12682;DHT22;6405;59.208;18.216;2024-02-04T14:15:58;3.30;99.90
12682;DHT22;6405;59.208;18.216;2024-02-04T14:18:24;3.20;99.90
12682;DHT22;6405;59.208;18.216;2024-02-04T14:20:50;3.10;99.90
12682;DHT22;6405;59.208;18.216;2024-02-04T14:23:16;3.00;99.90
12682;DHT22;6405;59.208;18.216;2024-02-04T14:25:41;2.90;99.90
12682;DHT22;6405;59.208;18.216;2024-02-04T14:28:07;2.90;99.90
12682;DHT22;6405;59.208;18.216;2024-02-04T14:30:33;2.90;99.90
12682;DHT22;6405;59.208;18.216;2024-02-04T14:32:58;2.60;99.90
12682;DHT22;6405;59.208;18.216;2024-02-04T14:35:24;2.60;99.90
12682;DHT22;6405;59.208;18.216;2024-02-04T14:37:50;2.50;99.90
12682;DHT22;6405;59.208;18.216;2024-02-04T14:40:15;2.40;99.90
12682;DHT22;6405;59.208;18.216;2024-02-04T14:42:41;2.40;99.90
12682;DHT22;6405;59.208;18.216;2024-02-04T14:45:07;2.30;99.90
12682;DHT22;6405;59.208;18.216;2024-02-04T14:47:33;2.30;99.90
12682;DHT22;6405;59.208;18.216;2024-02-04T14:49:59;2.20;99.90
12682;DHT22;6405;59.208;18.216;2024-02-04T14:52:24;2.20;99.90
12682;DHT22;6405;59.208;18.216;2024-02-04T14:54:50;2.10;99.90
12682;DHT22;6405;59.208;18.216;2024-02-04T14:57:16;2.00;99.90
12682;DHT22;6405;59.208;18.216;2024-02-04T14:59:42;2.00;99.90
12682;DHT22;6405;59.208;18.216;2024-02-04T15:02:08;2.00;99.90
12682;DHT22;6405;59.208;18.216;2024-02-04T15:04:34;1.80;99.90
12682;DHT22;6405;59.208;18.216;2024-02-04T15:07:00;1.80;99.90
12682;DHT22;6405;59.208;18.216;2024-02-04T15:09:32;1.70;99.90
12682;DHT22;6405;59.208;18.216;2024-02-04T15:11:59;1.70;99.90
12682;DHT22;6405;59.208;18.216;2024-02-04T15:14:25;1.60;99.90
12682;DHT22;6405;59.208;18.216;2024-02-04T15:16:51;1.50;99.90
12682;DHT22;6405;59.208;18.216;2024-02-04T15:19:17;1.50;99.90
12682;DHT22;6405;59.208;18.216;2024-02-04T15:21:43;1.50;99.90
12682;DHT22;6405;59.208;18.216;2024-02-04T15:24:09;1.50;99.90
12682;DHT22;6405;59.208;18.216;2024-02-04T15:26:36;1.40;99.90
12682;DHT22;6405;59.208;18.216;2024-02-04T15:29:03;1.40;99.90
12682;DHT22;6405;59.208;18.216;2024-02-04T15:31:30;1.40;99.90
12682;DHT22;6405;59.208;18.216;2024-02-04T15:33:56;1.40;99.90
12682;DHT22;6405;59.208;18.216;2024-02-04T15:36:22;1.40;99.90
12682;DHT22;6405;59.208;18.216;2024-02-04T15:38:50;1.40;99.90
12682;DHT22;6405;59.208;18.216;2024-02-04T15:41:16;1.30;99.90
12682;DHT22;6405;59.208;18.216;2024-02-04T15:43:41;1.30;99.90
12682;DHT22;6405;59.208;18.216;2024-02-04T15:46:08;1.30;99.90
12682;DHT22;6405;59.208;18.216;2024-02-04T15:48:38;1.30;99.90
12682;DHT22;6405;59.208;18.216;2024-02-04T15:51:05;1.30;99.90